Time;durP1;ratioP1;P1;durP2;ratioP2;P2;SDS_P1;SDS_P2;PMS_P1;PMS_P2;Temp;Humidity;BMP_temperature;BMP_pressure;BME280_temperature;BME280_humidity;BME280_pressure;Samples;Min_cycle;Max_cycle;Signal;HPM_P1;HPM_P2
2023/05/09 00:01:29;;;;;;;51.05;30.85;;;15.70;99.90;;;;;;5111740;28;20047;-70
2023/05/09 00:03:54;;;;;;;64.40;38.08;;;15.70;99.90;;;;;;5113307;28;20040;-70
2023/05/09 00:06:20;;;;;;;67.80;37.35;;;15.50;99.90;;;;;;5111720;28;20547;-70
2023/05/09 00:08:46;;;;;;;64.70;36.75;;;15.50;99.90;;;;;;5113206;28;20114;-70
2023/05/09 00:11:11;;;;;;;60.00;35.15;;;15.40;99.90;;;;;;5113427;28;20088;-70
2023/05/09 00:13:37;;;;;;;67.82;38.92;;;15.40;99.90;;;;;;5113745;28;20414;-70
2023/05/09 00:16:04;;;;;;;62.95;36.60;;;15.40;99.90;;;;;;5113426;28;20040;-70
2023/05/09 00:18:30;;;;;;;61.88;35.20;;;15.40;99.90;;;;;;5113228;28;20051;-70
2023/05/09 00:20:56;;;;;;;75.15;40.60;;;15.40;99.90;;;;;;5112714;28;20036;-70
2023/05/09 00:23:22;;;;;;;70.97;37.78;;;15.30;99.90;;;;;;5112203;28;20040;-70
2023/05/09 00:25:47;;;;;;;71.95;40.65;;;15.30;99.90;;;;;;5113067;28;20055;-70
2023/05/09 00:28:13;;;;;;;71.97;39.40;;;15.10;99.90;;;;;;5112440;28;20071;-70
2023/05/09 00:30:39;;;;;;;72.47;40.08;;;15.10;99.90;;;;;;5112338;28;20054;-70
2023/05/09 00:33:05;;;;;;;75.97;40.30;;;15.10;99.90;;;;;;5113542;28;20399;-70
2023/05/09 00:35:31;;;;;;;71.93;35.67;;;15.10;99.90;;;;;;5112228;28;20051;-70
2023/05/09 00:37:56;;;;;;;69.90;36.75;;;15.10;99.90;;;;;;5113566;28;20058;-70
2023/05/09 00:40:22;;;;;;;64.90;35.90;;;15.20;99.90;;;;;;5113408;28;20628;-70
2023/05/09 00:42:47;;;;;;;69.07;38.05;;;15.20;99.90;;;;;;5113560;28;20042;-70
2023/05/09 00:45:13;;;;;;;68.63;38.92;;;15.10;99.90;;;;;;5112694;28;20566;-68
2023/05/09 00:47:39;;;;;;;75.30;38.67;;;15.20;99.90;;;;;;5112555;28;20043;-68
2023/05/09 00:50:05;;;;;;;78.57;38.75;;;15.00;99.90;;;;;;5112872;28;20035;-68
2023/05/09 00:52:32;;;;;;;72.85;37.65;;;14.90;99.90;;;;;;5112372;28;20052;-68
2023/05/09 00:54:59;;;;;;;75.90;38.47;;;14.90;99.90;;;;;;5113344;28;20119;-67
2023/05/09 00:57:25;;;;;;;64.53;33.42;;;14.90;99.90;;;;;;5112919;28;20040;-68
2023/05/09 00:59:50;;;;;;;61.13;32.45;;;14.90;99.90;;;;;;5112253;28;20460;-68
2023/05/09 01:02:17;;;;;;;68.45;37.58;;;14.90;99.90;;;;;;5111935;28;20105;-68
2023/05/09 01:04:44;;;;;;;72.68;35.95;;;14.90;99.90;;;;;;5111867;28;20548;-68
2023/05/09 01:07:21;;;;;;;67.53;34.22;;;14.80;99.90;;;;;;5112786;28;20044;-70
2023/05/09 01:09:55;;;;;;;75.55;36.92;;;14.90;99.90;;;;;;5112525;28;20138;-67
2023/05/09 01:12:44;;;;;;;73.15;37.28;;;14.90;99.90;;;;;;5112719;28;20048;-68
2023/05/09 01:15:25;;;;;;;60.63;31.80;;;14.90;99.90;;;;;;5112756;28;20036;-68
2023/05/09 01:17:59;;;;;;;66.28;34.03;;;14.90;99.90;;;;;;5112554;28;20054;-68
2023/05/09 01:20:38;;;;;;;66.85;32.78;;;15.00;99.90;;;;;;5112868;28;20039;-68
2023/05/09 01:23:33;;;;;;;72.63;35.72;;;15.00;99.90;;;;;;5112690;28;20044;-68
2023/05/09 01:26:20;;;;;;;65.68;33.55;;;15.00;99.90;;;;;;5111268;28;20040;-68
2023/05/09 01:29:23;;;;;;;70.20;37.08;;;15.00;99.90;;;;;;5112697;28;20047;-68
2023/05/09 01:31:50;;;;;;;68.57;34.42;;;15.10;99.90;;;;;;5114200;28;20546;-68
2023/05/09 01:34:17;;;;;;;58.15;30.42;;;15.00;99.90;;;;;;5116584;28;20044;-68
2023/05/09 01:36:44;;;;;;;71.00;33.40;;;15.00;99.90;;;;;;5116782;28;20040;-68
2023/05/09 01:39:12;;;;;;;73.53;34.92;;;15.10;99.90;;;;;;5098062;28;20047;-68
2023/05/09 01:41:38;;;;;;;69.32;32.90;;;15.10;99.90;;;;;;5116044;28;20042;-68
2023/05/09 01:44:08;;;;;;;70.22;35.72;;;15.10;99.90;;;;;;5116322;28;20044;-68
2023/05/09 01:46:35;;;;;;;73.40;34.40;;;15.10;99.90;;;;;;5116321;28;20097;-68
2023/05/09 01:49:01;;;;;;;68.80;34.88;;;15.10;99.90;;;;;;5116381;28;20040;-68
2023/05/09 01:51:28;;;;;;;70.65;35.70;;;15.10;99.90;;;;;;5116238;28;20057;-68
2023/05/09 01:53:56;;;;;;;63.67;32.15;;;15.10;99.90;;;;;;5116409;28;20115;-68
2023/05/09 01:56:23;;;;;;;70.97;34.67;;;15.00;99.90;;;;;;5115981;28;20039;-68
2023/05/09 01:58:50;;;;;;;75.05;36.20;;;15.00;99.90;;;;;;5116222;28;20047;-68
2023/05/09 02:01:17;;;;;;;70.30;34.72;;;15.10;99.90;;;;;;5116078;28;20093;-68
2023/05/09 02:03:45;;;;;;;66.90;33.75;;;15.00;99.90;;;;;;5115994;28;20114;-68
2023/05/09 02:06:12;;;;;;;63.65;34.15;;;15.00;99.90;;;;;;5114619;28;20044;-68
2023/05/09 02:08:38;;;;;;;67.65;33.10;;;15.10;99.90;;;;;;5115545;28;20062;-68
2023/05/09 02:11:04;;;;;;;70.22;35.17;;;15.10;99.90;;;;;;5116036;28;20096;-68
2023/05/09 02:13:29;;;;;;;69.15;34.97;;;15.10;99.90;;;;;;5115900;28;20114;-68
2023/05/09 02:15:55;;;;;;;64.32;33.45;;;15.10;99.90;;;;;;5115162;28;20032;-68
2023/05/09 02:18:21;;;;;;;73.30;35.08;;;15.10;99.90;;;;;;5115155;28;20491;-67
2023/05/09 02:20:47;;;;;;;75.15;37.58;;;15.00;99.90;;;;;;5115114;28;20118;-68
2023/05/09 02:23:13;;;;;;;66.95;37.30;;;15.00;99.90;;;;;;5114899;28;20059;-68
2023/05/09 02:25:39;;;;;;;75.38;33.78;;;15.10;99.90;;;;;;5113691;28;20036;-68
2023/05/09 02:28:07;;;;;;;69.28;35.47;;;15.00;99.90;;;;;;5114668;28;20093;-68
2023/05/09 02:30:38;;;;;;;69.57;34.87;;;15.00;99.90;;;;;;5114909;28;20147;-68
2023/05/09 02:33:07;;;;;;;64.53;33.72;;;15.00;99.90;;;;;;5114751;28;20096;-67
2023/05/09 02:35:34;;;;;;;74.97;35.25;;;15.00;99.90;;;;;;5114599;28;20506;-68
2023/05/09 02:38:00;;;;;;;71.65;37.78;;;14.90;99.90;;;;;;5114582;28;20559;-68
2023/05/09 02:40:28;;;;;;;67.90;36.55;;;14.90;99.90;;;;;;5114698;28;20100;-68
2023/05/09 02:42:54;;;;;;;69.85;37.45;;;14.90;99.90;;;;;;5114142;28;20483;-68
2023/05/09 02:45:19;;;;;;;66.85;35.25;;;15.00;99.90;;;;;;5114725;28;20043;-68
2023/05/09 02:47:45;;;;;;;68.35;34.25;;;15.00;99.90;;;;;;5114183;28;20046;-68
2023/05/09 02:50:11;;;;;;;68.25;36.90;;;15.00;99.90;;;;;;5113296;28;20087;-68
2023/05/09 02:52:36;;;;;;;65.95;35.17;;;14.90;99.90;;;;;;5114125;28;20036;-68
2023/05/09 02:55:02;;;;;;;67.65;36.20;;;15.00;99.90;;;;;;5096132;28;20039;-68
2023/05/09 02:57:28;;;;;;;61.83;32.92;;;15.00;99.90;;;;;;5114560;28;20137;-68
2023/05/09 02:59:54;;;;;;;64.43;37.10;;;15.00;99.90;;;;;;5113397;28;20071;-69
2023/05/09 03:02:19;;;;;;;66.35;35.42;;;15.00;99.90;;;;;;5113618;28;20036;-68
2023/05/09 03:04:45;;;;;;;64.40;38.78;;;15.00;99.90;;;;;;5114487;28;20046;-68
2023/05/09 03:07:11;;;;;;;60.08;35.95;;;15.00;99.90;;;;;;5114030;28;20050;-67
2023/05/09 03:09:36;;;;;;;65.68;35.85;;;15.10;99.90;;;;;;5114813;28;20119;-68
2023/05/09 03:12:02;;;;;;;62.50;35.20;;;15.00;99.90;;;;;;5112838;28;20464;-68
2023/05/09 03:14:28;;;;;;;62.58;35.75;;;15.10;99.90;;;;;;5114169;28;20046;-67
2023/05/09 03:16:54;;;;;;;68.28;36.45;;;15.10;99.90;;;;;;5113821;28;20035;-68
2023/05/09 03:19:19;;;;;;;60.67;34.92;;;15.00;99.90;;;;;;5113114;28;20406;-68
2023/05/09 03:21:45;;;;;;;59.30;34.00;;;15.10;99.90;;;;;;5114296;28;20050;-68
2023/05/09 03:24:11;;;;;;;63.17;35.72;;;15.10;99.90;;;;;;5114378;28;20046;-68
2023/05/09 03:26:36;;;;;;;58.53;33.10;;;15.10;99.90;;;;;;5114275;28;20043;-68
2023/05/09 03:29:02;;;;;;;65.30;34.75;;;15.10;99.90;;;;;;5113887;28;20039;-68
2023/05/09 03:31:28;;;;;;;52.72;32.03;;;15.10;99.90;;;;;;5113920;28;20050;-67
2023/05/09 03:33:54;;;;;;;54.40;30.45;;;15.00;99.90;;;;;;5113690;28;20407;-68
2023/05/09 03:36:19;;;;;;;57.28;34.35;;;15.00;99.90;;;;;;5113509;28;20089;-67
2023/05/09 03:38:45;;;;;;;57.28;30.88;;;14.90;99.90;;;;;;5113172;28;20045;-68
2023/05/09 03:41:12;;;;;;;56.03;32.35;;;14.90;99.90;;;;;;5113892;28;20059;-67
2023/05/09 03:43:38;;;;;;;53.55;30.17;;;15.00;99.90;;;;;;5111739;28;20070;-68
2023/05/09 03:46:03;;;;;;;48.53;26.92;;;15.00;99.90;;;;;;5113159;28;20063;-68
2023/05/09 03:48:29;;;;;;;45.75;28.85;;;14.90;99.90;;;;;;5113302;28;20040;-68
2023/05/09 03:50:54;;;;;;;42.80;27.08;;;14.90;99.90;;;;;;5113114;28;20399;-68
2023/05/09 03:53:20;;;;;;;40.13;24.80;;;14.90;99.90;;;;;;5112878;28;20555;-70
2023/05/09 03:55:45;;;;;;;36.38;21.15;;;14.90;99.90;;;;;;5112814;28;20059;-68
2023/05/09 03:58:11;;;;;;;37.13;23.42;;;14.80;99.90;;;;;;5112795;28;20031;-68
2023/05/09 04:00:37;;;;;;;37.83;24.50;;;14.90;99.90;;;;;;5113264;28;20035;-68
2023/05/09 04:03:03;;;;;;;36.58;23.95;;;14.80;99.90;;;;;;5112586;28;20039;-68
2023/05/09 04:05:29;;;;;;;33.05;22.75;;;14.90;99.90;;;;;;5112386;28;20035;-68
2023/05/09 04:07:54;;;;;;;30.63;21.33;;;14.90;99.90;;;;;;5112357;28;20039;-68
2023/05/09 04:10:20;;;;;;;31.13;20.63;;;14.80;99.90;;;;;;5112748;28;20047;-68
2023/05/09 04:12:45;;;;;;;27.30;18.63;;;14.80;99.90;;;;;;5112516;28;20403;-68
2023/05/09 04:15:11;;;;;;;25.40;17.10;;;14.80;99.90;;;;;;5112392;28;20088;-68
2023/05/09 04:17:37;;;;;;;23.45;17.85;;;14.80;99.90;;;;;;5112486;28;20036;-67
2023/05/09 04:20:02;;;;;;;23.10;16.80;;;14.80;99.90;;;;;;5113269;28;20106;-67
2023/05/09 04:22:28;;;;;;;23.75;16.52;;;14.70;99.90;;;;;;5112588;28;20036;-67
2023/05/09 04:24:53;;;;;;;24.77;17.00;;;14.70;99.90;;;;;;5113068;28;20110;-68
2023/05/09 04:27:19;;;;;;;25.15;16.00;;;14.70;99.90;;;;;;5113030;28;20396;-68
2023/05/09 04:29:45;;;;;;;23.58;15.95;;;14.70;99.90;;;;;;5113123;28;20039;-68
2023/05/09 04:32:10;;;;;;;23.67;16.73;;;14.70;99.90;;;;;;5113035;28;20031;-68
2023/05/09 04:34:36;;;;;;;25.42;16.27;;;14.70;99.90;;;;;;5112727;28;20077;-68
2023/05/09 04:37:02;;;;;;;23.80;15.68;;;14.70;99.90;;;;;;5112319;28;20529;-68
2023/05/09 04:39:29;;;;;;;24.52;17.52;;;14.70;99.90;;;;;;5112378;28;20097;-68
2023/05/09 04:41:54;;;;;;;20.15;14.75;;;14.70;99.90;;;;;;5111464;28;20071;-68
2023/05/09 04:44:20;;;;;;;19.98;15.65;;;14.70;99.90;;;;;;5112486;28;20094;-68
2023/05/09 04:46:46;;;;;;;26.65;16.63;;;14.70;99.90;;;;;;5111881;28;20039;-68
2023/05/09 04:49:11;;;;;;;24.50;16.23;;;14.70;99.90;;;;;;5112492;28;20119;-68
2023/05/09 04:51:37;;;;;;;22.88;15.77;;;14.80;99.90;;;;;;5112346;28;20100;-68
2023/05/09 04:54:02;;;;;;;23.38;16.65;;;14.70;99.90;;;;;;5112371;28;20169;-68
2023/05/09 04:56:28;;;;;;;24.83;17.58;;;14.80;99.90;;;;;;5111878;28;20090;-68
2023/05/09 04:58:53;;;;;;;23.75;17.55;;;14.80;99.90;;;;;;5111696;28;20028;-68
2023/05/09 05:01:19;;;;;;;25.17;17.05;;;14.70;99.90;;;;;;5111280;28;20114;-68
2023/05/09 05:03:45;;;;;;;24.63;19.10;;;14.80;99.90;;;;;;5110341;28;20487;-68
2023/05/09 05:06:10;;;;;;;24.88;17.38;;;14.80;99.90;;;;;;5112969;28;20084;-68
2023/05/09 05:08:36;;;;;;;30.38;20.40;;;14.80;99.90;;;;;;5115786;28;20514;-68
2023/05/09 05:11:02;;;;;;;26.27;19.20;;;14.80;99.90;;;;;;5115717;28;20032;-68
2023/05/09 05:13:27;;;;;;;27.77;19.00;;;14.80;99.90;;;;;;5115738;28;20451;-68
2023/05/09 05:15:53;;;;;;;24.80;18.58;;;14.90;99.90;;;;;;5115475;28;20032;-68
2023/05/09 05:18:19;;;;;;;26.50;18.35;;;14.90;99.90;;;;;;5115280;28;20036;-68
2023/05/09 05:20:44;;;;;;;28.13;20.85;;;14.90;99.90;;;;;;5115707;28;20042;-68
2023/05/09 05:23:10;;;;;;;30.50;20.52;;;14.90;99.90;;;;;;5115362;28;20043;-68
2023/05/09 05:25:35;;;;;;;27.27;20.05;;;14.80;99.90;;;;;;5115134;28;20032;-69
2023/05/09 05:28:01;;;;;;;25.15;17.95;;;14.90;99.90;;;;;;5115301;28;20031;-68
2023/05/09 05:30:27;;;;;;;30.00;19.75;;;14.90;99.90;;;;;;5115325;28;20036;-68
2023/05/09 05:32:52;;;;;;;29.00;20.27;;;14.90;99.90;;;;;;5114910;28;20039;-68
2023/05/09 05:35:21;;;;;;;28.02;18.17;;;14.90;99.90;;;;;;5115308;28;20514;-68
2023/05/09 05:37:46;;;;;;;27.45;20.20;;;14.90;99.90;;;;;;5115177;28;20035;-68
2023/05/09 05:40:12;;;;;;;28.08;19.25;;;14.90;99.90;;;;;;5108379;28;20039;-69
2023/05/09 05:42:38;;;;;;;28.52;20.48;;;14.90;99.90;;;;;;5113516;28;20028;-69
2023/05/09 05:45:04;;;;;;;30.48;21.00;;;14.90;99.90;;;;;;5114168;28;20122;-68
2023/05/09 05:47:34;;;;;;;32.55;21.42;;;14.90;99.90;;;;;;5114626;28;20112;-68
2023/05/09 05:50:00;;;;;;;31.85;21.92;;;14.90;99.90;;;;;;5115776;28;20055;-71
2023/05/09 05:52:26;;;;;;;28.13;18.92;;;14.90;99.90;;;;;;5114692;28;20039;-70
2023/05/09 05:54:52;;;;;;;35.13;21.40;;;14.90;99.90;;;;;;5114358;28;20111;-71
2023/05/09 05:57:18;;;;;;;28.83;19.52;;;15.00;99.90;;;;;;5114554;28;20047;-71
2023/05/09 05:59:45;;;;;;;27.08;18.45;;;15.00;99.90;;;;;;5114590;28;20039;-69
2023/05/09 06:02:10;;;;;;;29.95;21.63;;;14.90;99.90;;;;;;5114234;28;20122;-69
2023/05/09 06:04:36;;;;;;;32.50;20.92;;;15.00;99.90;;;;;;5113261;28;20127;-71
2023/05/09 06:07:02;;;;;;;28.02;20.67;;;15.00;99.90;;;;;;5114468;28;20063;-71
2023/05/09 06:09:27;;;;;;;33.47;22.83;;;14.90;99.90;;;;;;5114523;28;20058;-69
2023/05/09 06:11:53;;;;;;;31.13;21.65;;;15.00;99.90;;;;;;5112889;28;20384;-68
2023/05/09 06:14:18;;;;;;;30.58;20.75;;;15.00;99.90;;;;;;5114365;28;20112;-68
2023/05/09 06:16:44;;;;;;;32.67;22.45;;;15.10;99.90;;;;;;5113704;28;20457;-68
2023/05/09 06:19:09;;;;;;;33.08;21.33;;;15.10;99.90;;;;;;5114665;28;20482;-68
2023/05/09 06:21:35;;;;;;;31.08;21.33;;;15.10;99.90;;;;;;5114389;28;20069;-69
2023/05/09 06:24:02;;;;;;;34.58;22.67;;;15.10;99.90;;;;;;5114351;28;20043;-68
2023/05/09 06:26:28;;;;;;;31.20;21.52;;;15.10;99.90;;;;;;5114198;28;20047;-69
2023/05/09 06:28:53;;;;;;;32.15;21.58;;;15.10;99.90;;;;;;5113967;28;20043;-69
2023/05/09 06:31:19;;;;;;;28.15;19.10;;;15.20;99.90;;;;;;5113970;28;20048;-72
2023/05/09 06:33:45;;;;;;;32.28;23.30;;;15.20;99.90;;;;;;5114177;28;20114;-68
2023/05/09 06:36:10;;;;;;;32.63;22.45;;;15.20;99.90;;;;;;5114105;28;20043;-70
2023/05/09 06:38:36;;;;;;;31.25;22.33;;;15.20;99.90;;;;;;5113847;28;20070;-72
2023/05/09 06:41:01;;;;;;;31.77;22.00;;;15.30;99.90;;;;;;5112500;28;20051;-71
2023/05/09 06:43:27;;;;;;;29.40;20.48;;;15.30;99.90;;;;;;5113609;28;20443;-69
2023/05/09 06:45:52;;;;;;;30.85;21.67;;;15.40;99.90;;;;;;5113613;28;20128;-72
2023/05/09 06:48:18;;;;;;;32.03;20.85;;;15.40;99.90;;;;;;5113425;28;20039;-71
2023/05/09 06:50:44;;;;;;;32.97;22.05;;;15.40;99.90;;;;;;5113849;28;20123;-72
2023/05/09 06:53:09;;;;;;;37.72;23.90;;;15.40;99.90;;;;;;5113564;28;20414;-69
2023/05/09 06:55:36;;;;;;;32.65;22.08;;;15.50;99.90;;;;;;5113593;28;20069;-69
2023/05/09 06:58:02;;;;;;;32.88;23.20;;;15.50;99.90;;;;;;5113395;28;20036;-69
2023/05/09 07:00:28;;;;;;;35.47;24.92;;;15.50;99.90;;;;;;5113574;28;20039;-69
2023/05/09 07:02:53;;;;;;;38.30;24.85;;;15.60;99.90;;;;;;5113586;28;20123;-69
2023/05/09 07:05:19;;;;;;;35.45;23.10;;;15.60;99.90;;;;;;5113476;28;20414;-69
2023/05/09 07:07:45;;;;;;;35.60;24.15;;;15.60;99.90;;;;;;5113421;28;20050;-72
2023/05/09 07:10:10;;;;;;;40.80;27.63;;;15.60;99.90;;;;;;5113415;28;20039;-72
2023/05/09 07:12:36;;;;;;;45.42;28.15;;;15.70;99.90;;;;;;5113109;28;20069;-71
2023/05/09 07:15:02;;;;;;;46.90;29.45;;;15.70;99.90;;;;;;5112926;28;20039;-69
2023/05/09 07:17:28;;;;;;;48.40;30.00;;;15.70;99.90;;;;;;5113230;28;20036;-71
2023/05/09 07:19:54;;;;;;;44.17;26.48;;;15.60;99.90;;;;;;5113393;28;20055;-72
2023/05/09 07:22:20;;;;;;;49.88;30.70;;;15.70;99.90;;;;;;5113159;28;20102;-72
2023/05/09 07:24:46;;;;;;;49.42;29.33;;;15.70;99.90;;;;;;5113187;28;20032;-72
2023/05/09 07:27:11;;;;;;;49.10;28.92;;;15.70;99.90;;;;;;5112792;28;20036;-69
2023/05/09 07:29:37;;;;;;;55.10;31.30;;;15.60;99.90;;;;;;5112132;28;20043;-69
2023/05/09 07:32:03;;;;;;;60.00;33.95;;;15.70;99.90;;;;;;5113016;28;20043;-69
2023/05/09 07:34:28;;;;;;;55.55;33.20;;;15.70;99.90;;;;;;5112929;28;20134;-69
2023/05/09 07:36:54;;;;;;;64.25;36.25;;;15.60;99.90;;;;;;5112625;28;20518;-69
2023/05/09 07:39:19;;;;;;;62.65;34.50;;;15.70;99.90;;;;;;5112745;28;20129;-69
2023/05/09 07:41:45;;;;;;;55.97;32.60;;;15.70;99.90;;;;;;5105034;28;20036;-69
2023/05/09 07:44:11;;;;;;;55.55;33.00;;;15.60;99.90;;;;;;5106897;28;20127;-70
2023/05/09 07:46:39;;;;;;;65.45;35.47;;;15.60;99.90;;;;;;5099577;28;20101;-72
2023/05/09 07:49:04;;;;;;;69.63;34.88;;;15.60;99.90;;;;;;5109729;28;20089;-72
2023/05/09 07:51:31;;;;;;;65.57;35.55;;;15.60;99.90;;;;;;5097462;28;20052;-69
2023/05/09 07:53:56;;;;;;;62.95;32.58;;;15.70;99.90;;;;;;5112360;28;20038;-72
2023/05/09 07:56:22;;;;;;;55.67;33.95;;;15.70;99.90;;;;;;5110654;28;20040;-71
2023/05/09 07:58:48;;;;;;;59.40;35.65;;;15.60;99.90;;;;;;5105400;28;20036;-72
2023/05/09 08:01:14;;;;;;;64.75;37.40;;;15.70;99.90;;;;;;5104411;28;20039;-72
2023/05/09 08:03:40;;;;;;;65.35;34.58;;;15.70;99.90;;;;;;5112006;28;20046;-71
2023/05/09 08:06:05;;;;;;;67.03;34.72;;;15.80;99.90;;;;;;5111704;28;20040;-72
2023/05/09 08:08:31;;;;;;;57.90;32.13;;;15.80;99.90;;;;;;5110588;28;20118;-71
2023/05/09 08:10:57;;;;;;;55.00;30.70;;;15.70;99.90;;;;;;5111755;28;20038;-71
2023/05/09 08:13:22;;;;;;;58.70;32.58;;;15.80;99.90;;;;;;5111803;28;20084;-72
2023/05/09 08:15:48;;;;;;;57.00;33.05;;;15.80;99.90;;;;;;5111875;28;20490;-71
2023/05/09 08:18:14;;;;;;;62.15;36.28;;;15.90;99.90;;;;;;5112117;28;20035;-71
2023/05/09 08:20:39;;;;;;;61.35;34.97;;;15.80;99.90;;;;;;5112313;28;20031;-71
2023/05/09 08:23:06;;;;;;;63.15;34.40;;;15.90;99.90;;;;;;5112148;28;20040;-72
2023/05/09 08:25:31;;;;;;;69.35;36.75;;;15.90;99.90;;;;;;5112081;28;20635;-71
2023/05/09 08:27:57;;;;;;;59.65;34.28;;;16.00;99.90;;;;;;5111844;28;20040;-71
2023/05/09 08:30:23;;;;;;;62.35;34.25;;;16.00;99.90;;;;;;5111968;28;20078;-72
2023/05/09 08:32:48;;;;;;;59.97;35.33;;;16.10;99.90;;;;;;5111704;28;20047;-71
2023/05/09 08:35:14;;;;;;;63.30;35.25;;;16.10;99.90;;;;;;5112041;28;20116;-71
2023/05/09 08:37:40;;;;;;;58.45;34.95;;;16.20;99.90;;;;;;5111827;28;20123;-70
2023/05/09 08:40:09;;;;;;;64.95;34.05;;;16.20;99.90;;;;;;5112949;28;20047;-71
2023/05/09 08:42:37;;;;;;;60.55;33.35;;;16.30;99.90;;;;;;5115907;28;20047;-71
2023/05/09 08:45:08;;;;;;;57.97;32.88;;;16.30;99.90;;;;;;5116220;28;20121;-71
2023/05/09 08:47:37;;;;;;;59.30;34.40;;;16.40;99.90;;;;;;5116081;28;20563;-71
2023/05/09 08:50:04;;;;;;;55.22;31.17;;;16.40;99.90;;;;;;5107049;28;20393;-71
2023/05/09 08:52:32;;;;;;;60.92;32.80;;;16.50;99.90;;;;;;5111852;28;20115;-72
2023/05/09 08:54:58;;;;;;;59.20;31.90;;;16.50;99.90;;;;;;5099752;28;20036;-71
2023/05/09 08:57:26;;;;;;;56.20;31.67;;;16.60;99.90;;;;;;5115551;28;20031;-72
2023/05/09 08:59:52;;;;;;;57.60;31.48;;;16.60;99.90;;;;;;5101976;28;20043;-71
2023/05/09 09:02:19;;;;;;;62.53;32.88;;;16.70;99.90;;;;;;5115562;28;20039;-71
2023/05/09 09:04:44;;;;;;;54.85;29.70;;;16.80;99.90;;;;;;5115176;28;20556;-71
2023/05/09 09:07:12;;;;;;;61.67;33.00;;;16.90;99.90;;;;;;5104661;28;20044;-71
2023/05/09 09:09:41;;;;;;;55.97;29.40;;;17.00;99.90;;;;;;5111279;28;20080;-71
2023/05/09 09:12:08;;;;;;;58.13;30.27;;;17.10;99.90;;;;;;5113988;28;20537;-71
2023/05/09 09:14:38;;;;;;;55.95;31.48;;;17.20;99.90;;;;;;5115310;28;20075;-72
2023/05/09 09:17:05;;;;;;;59.90;30.83;;;17.10;99.90;;;;;;5115181;28;20114;-71
2023/05/09 09:19:32;;;;;;;53.42;29.48;;;17.20;99.90;;;;;;5115237;28;20074;-72
2023/05/09 09:22:01;;;;;;;61.25;33.55;;;17.40;99.90;;;;;;5114920;28;20095;-71
2023/05/09 09:24:27;;;;;;;58.80;31.80;;;17.40;99.90;;;;;;5102656;28;20036;-71
2023/05/09 09:26:53;;;;;;;52.60;31.08;;;17.40;99.90;;;;;;5112887;28;20040;-71
2023/05/09 09:29:27;;;;;;;54.75;30.08;;;17.40;99.90;;;;;;5115211;28;20126;-72
2023/05/09 09:31:53;;;;;;;48.70;28.83;;;17.50;99.90;;;;;;5094909;28;20043;-71
2023/05/09 09:34:21;;;;;;;49.28;30.00;;;17.60;99.90;;;;;;5113790;28;20067;-72
2023/05/09 09:36:47;;;;;;;52.45;31.38;;;17.60;99.90;;;;;;5114415;28;20403;-72
2023/05/09 09:39:13;;;;;;;50.88;27.15;;;17.80;99.90;;;;;;5115047;28;20036;-71
2023/05/09 09:41:40;;;;;;;50.38;29.20;;;17.80;99.90;;;;;;5114780;28;20046;-71
2023/05/09 09:44:17;;;;;;;52.40;28.80;;;17.80;99.90;;;;;;5114675;28;20620;-72
2023/05/09 09:46:49;;;;;;;47.22;26.48;;;17.90;99.90;;;;;;5114704;28;20047;-72
2023/05/09 09:49:22;;;;;;;53.72;28.75;;;17.80;99.90;;;;;;5114703;28;20459;-72
2023/05/09 09:51:53;;;;;;;47.33;28.33;;;17.80;99.90;;;;;;5113675;28;20043;-72
2023/05/09 09:54:19;;;;;;;42.25;26.55;;;17.80;99.90;;;;;;5114649;28;20111;-72
2023/05/09 09:56:47;;;;;;;42.95;27.35;;;17.80;99.90;;;;;;5114368;28;20106;-72
2023/05/09 09:59:14;;;;;;;42.53;26.15;;;17.80;99.90;;;;;;5100048;28;20624;-72
2023/05/09 10:02:00;;;;;;;45.22;25.40;;;17.90;99.90;;;;;;5113998;28;20043;-72
2023/05/09 10:04:36;;;;;;;43.50;24.33;;;17.90;99.90;;;;;;5114448;28;20039;-71
2023/05/09 10:07:09;;;;;;;41.28;25.45;;;17.90;99.90;;;;;;5114203;28;20031;-71
2023/05/09 10:09:38;;;;;;;36.33;22.90;;;18.00;99.90;;;;;;5112969;28;20036;-72
2023/05/09 10:12:06;;;;;;;41.13;25.27;;;18.00;99.90;;;;;;5114092;28;20051;-72
2023/05/09 10:14:33;;;;;;;42.40;24.45;;;18.00;99.90;;;;;;5114258;28;20028;-71
2023/05/09 10:17:02;;;;;;;38.08;23.52;;;18.00;99.90;;;;;;5114108;28;20035;-71
2023/05/09 10:19:28;;;;;;;38.75;25.02;;;17.90;99.90;;;;;;5114157;28;20453;-71
2023/05/09 10:21:56;;;;;;;41.50;26.38;;;17.80;99.90;;;;;;5112966;28;20050;-71
2023/05/09 10:24:46;;;;;;;38.13;23.88;;;17.80;99.90;;;;;;5113884;28;20081;-71
2023/05/09 10:27:12;;;;;;;39.38;25.42;;;17.70;99.90;;;;;;5113217;28;20423;-71
2023/05/09 10:29:44;;;;;;;34.35;23.08;;;17.70;99.90;;;;;;5113978;28;20043;-71
2023/05/09 10:32:22;;;;;;;37.45;22.92;;;17.70;99.90;;;;;;5113713;28;20040;-71
2023/05/09 10:34:51;;;;;;;37.00;24.30;;;17.70;99.90;;;;;;5113648;28;20036;-71
2023/05/09 10:37:19;;;;;;;39.15;24.63;;;17.70;99.90;;;;;;5113575;28;20036;-71
2023/05/09 10:39:45;;;;;;;36.35;23.23;;;17.70;99.90;;;;;;5113816;28;20039;-71
2023/05/09 10:42:12;;;;;;;35.53;23.15;;;17.70;99.90;;;;;;5113791;28;20478;-71
2023/05/09 10:44:38;;;;;;;33.28;21.50;;;17.90;99.90;;;;;;5113539;28;20437;-71
2023/05/09 10:47:04;;;;;;;37.75;23.58;;;18.10;99.90;;;;;;5113224;28;20044;-71
2023/05/09 10:49:31;;;;;;;37.05;22.45;;;18.30;99.90;;;;;;5112067;28;20096;-71
2023/05/09 10:51:56;;;;;;;34.28;22.70;;;18.50;99.90;;;;;;5113243;28;20059;-71
2023/05/09 10:54:32;;;;;;;30.85;20.45;;;18.70;99.90;;;;;;5112890;28;20074;-72
2023/05/09 10:56:58;;;;;;;32.40;20.65;;;18.80;99.90;;;;;;5109727;28;20036;-72
2023/05/09 10:59:40;;;;;;;28.42;20.25;;;18.90;99.90;;;;;;5097224;28;20486;-71
2023/05/09 11:02:14;;;;;;;31.17;19.90;;;18.80;99.90;;;;;;5113023;28;20039;-72
2023/05/09 11:04:40;;;;;;;32.13;19.92;;;18.90;99.90;;;;;;5112484;28;20344;-72
2023/05/09 11:07:26;;;;;;;30.17;18.35;;;18.90;99.90;;;;;;5111814;28;20075;-71
2023/05/09 11:10:16;;;;;;;27.48;18.48;;;18.80;99.90;;;;;;5112017;28;20050;-70
2023/05/09 11:12:58;;;;;;;25.52;16.85;;;19.00;99.90;;;;;;5111734;28;20058;-70
2023/05/09 11:15:26;;;;;;;25.53;15.83;;;19.00;99.90;;;;;;5113265;28;20686;-71
2023/05/09 11:18:09;;;;;;;25.70;16.00;;;19.20;99.90;;;;;;5112051;28;20057;-71
2023/05/09 11:20:42;;;;;;;25.45;16.13;;;19.20;99.90;;;;;;5112418;28;20096;-72
2023/05/09 11:23:10;;;;;;;30.65;18.38;;;19.30;99.90;;;;;;5113374;28;20039;-71
2023/05/09 11:25:38;;;;;;;28.30;18.20;;;19.40;99.90;;;;;;5111893;28;20040;-71
2023/05/09 11:28:04;;;;;;;33.28;20.10;;;19.50;99.90;;;;;;5112990;28;20092;-72
2023/05/09 11:30:42;;;;;;;39.90;25.65;;;19.50;99.90;;;;;;5113127;28;20453;-72
2023/05/09 11:33:25;;;;;;;46.13;27.10;;;19.40;99.90;;;;;;5111891;28;20088;-71
2023/05/09 11:36:31;;;;;;;44.47;27.20;;;19.20;99.90;;;;;;5113096;28;20073;-71
2023/05/09 11:39:05;;;;;;;43.58;27.95;;;19.00;99.90;;;;;;5049825;28;20051;-71
2023/05/09 11:41:41;;;;;;;50.78;27.95;;;18.80;99.90;;;;;;5049834;28;20447;-72
2023/05/09 11:44:13;;;;;;;46.85;27.42;;;18.80;99.90;;;;;;5088593;28;20055;-71
2023/05/09 11:46:39;;;;;;;43.75;26.17;;;18.80;99.90;;;;;;5113160;28;20040;-72
2023/05/09 11:49:06;;;;;;;47.67;27.33;;;18.80;99.90;;;;;;5112970;28;20495;-71
2023/05/09 11:51:36;;;;;;;45.00;27.27;;;18.90;99.90;;;;;;5112339;28;20118;-71
2023/05/09 11:54:02;;;;;;;45.58;27.35;;;18.90;99.90;;;;;;5112941;28;20047;-71
2023/05/09 11:56:29;;;;;;;43.50;26.63;;;18.90;99.90;;;;;;5111493;28;20032;-72
2023/05/09 11:58:55;;;;;;;42.20;27.10;;;18.80;99.90;;;;;;5112781;28;20044;-72
2023/05/09 12:01:21;;;;;;;43.38;27.25;;;18.80;99.90;;;;;;5112726;28;20042;-71
2023/05/09 12:03:48;;;;;;;42.83;28.52;;;18.70;99.90;;;;;;5111625;28;20054;-72
2023/05/09 12:06:18;;;;;;;45.25;27.85;;;18.70;99.90;;;;;;5112587;28;20518;-71
2023/05/09 12:08:46;;;;;;;45.97;27.77;;;18.80;99.90;;;;;;5110858;28;20502;-71
2023/05/09 12:11:12;;;;;;;47.10;28.40;;;18.80;99.90;;;;;;5112255;28;20040;-71
2023/05/09 12:13:56;;;;;;;46.90;30.20;;;18.80;99.90;;;;;;5111406;28;20088;-72
2023/05/09 12:16:22;;;;;;;46.67;29.50;;;18.80;99.90;;;;;;5111957;28;20499;-71
2023/05/09 12:18:52;;;;;;;45.25;29.27;;;18.80;99.90;;;;;;5112127;28;20046;-71
2023/05/09 12:21:18;;;;;;;46.50;27.92;;;18.70;99.90;;;;;;5111244;28;20051;-71
2023/05/09 12:23:46;;;;;;;54.55;32.05;;;18.70;99.90;;;;;;5112321;28;20503;-71
2023/05/09 12:26:11;;;;;;;57.03;31.13;;;18.70;99.90;;;;;;5110867;28;20040;-71
2023/05/09 12:28:37;;;;;;;54.00;30.98;;;18.70;99.90;;;;;;5110819;28;20043;-71
2023/05/09 12:31:04;;;;;;;52.72;30.88;;;18.60;99.90;;;;;;5111183;28;20048;-71